sensor_id;sensor_type;location;lat;lon;timestamp;P1;durP1;ratioP1;P2;durP2;ratioP2
18649;SDS011;9454;53.516;10.478;2023-12-20T00:02:57;6.25;;;1.40;;
18649;SDS011;9454;53.516;10.478;2023-12-20T00:06:01;10.13;;;1.33;;
18649;SDS011;9454;53.516;10.478;2023-12-20T00:09:06;9.40;;;1.27;;
18649;SDS011;9454;53.516;10.478;2023-12-20T00:12:10;10.18;;;1.42;;
18649;SDS011;9454;53.516;10.478;2023-12-20T00:15:13;7.55;;;1.05;;
18649;SDS011;9454;53.516;10.478;2023-12-20T00:18:17;9.27;;;1.02;;
18649;SDS011;9454;53.516;10.478;2023-12-20T00:21:21;9.93;;;1.35;;
18649;SDS011;9454;53.516;10.478;2023-12-20T00:24:27;8.52;;;1.35;;
18649;SDS011;9454;53.516;10.478;2023-12-20T00:27:30;6.43;;;1.40;;
18649;SDS011;9454;53.516;10.478;2023-12-20T00:30:34;5.85;;;1.40;;
18649;SDS011;9454;53.516;10.478;2023-12-20T00:33:39;4.63;;;1.17;;
18649;SDS011;9454;53.516;10.478;2023-12-20T00:36:45;5.78;;;1.45;;
18649;SDS011;9454;53.516;10.478;2023-12-20T00:39:59;4.95;;;0.88;;
18649;SDS011;9454;53.516;10.478;2023-12-20T00:43:03;6.05;;;1.05;;
18649;SDS011;9454;53.516;10.478;2023-12-20T00:46:07;7.68;;;1.40;;
18649;SDS011;9454;53.516;10.478;2023-12-20T00:49:11;6.90;;;1.23;;
18649;SDS011;9454;53.516;10.478;2023-12-20T00:52:15;5.93;;;1.30;;
18649;SDS011;9454;53.516;10.478;2023-12-20T00:55:21;4.65;;;1.00;;
18649;SDS011;9454;53.516;10.478;2023-12-20T00:58:24;3.40;;;1.15;;
18649;SDS011;9454;53.516;10.478;2023-12-20T01:01:31;5.22;;;1.17;;
18649;SDS011;9454;53.516;10.478;2023-12-20T01:04:35;6.97;;;1.02;;
18649;SDS011;9454;53.516;10.478;2023-12-20T01:07:39;5.95;;;1.05;;
18649;SDS011;9454;53.516;10.478;2023-12-20T01:10:46;8.38;;;1.17;;
18649;SDS011;9454;53.516;10.478;2023-12-20T01:13:50;7.35;;;1.20;;
18649;SDS011;9454;53.516;10.478;2023-12-20T01:16:56;4.00;;;0.85;;
18649;SDS011;9454;53.516;10.478;2023-12-20T01:20:00;5.47;;;0.93;;
18649;SDS011;9454;53.516;10.478;2023-12-20T01:23:04;3.30;;;1.23;;
18649;SDS011;9454;53.516;10.478;2023-12-20T01:26:10;3.92;;;0.93;;
18649;SDS011;9454;53.516;10.478;2023-12-20T01:29:14;5.95;;;1.27;;
18649;SDS011;9454;53.516;10.478;2023-12-20T01:32:18;3.00;;;1.02;;
18649;SDS011;9454;53.516;10.478;2023-12-20T01:35:21;7.05;;;0.88;;
18649;SDS011;9454;53.516;10.478;2023-12-20T01:38:26;13.85;;;1.63;;
18649;SDS011;9454;53.516;10.478;2023-12-20T01:41:31;3.83;;;1.20;;
18649;SDS011;9454;53.516;10.478;2023-12-20T01:44:35;5.68;;;1.27;;
18649;SDS011;9454;53.516;10.478;2023-12-20T01:47:39;9.45;;;1.50;;
18649;SDS011;9454;53.516;10.478;2023-12-20T01:50:43;8.10;;;1.17;;
18649;SDS011;9454;53.516;10.478;2023-12-20T01:53:48;4.63;;;1.02;;
18649;SDS011;9454;53.516;10.478;2023-12-20T01:56:54;8.77;;;1.40;;
18649;SDS011;9454;53.516;10.478;2023-12-20T01:59:58;9.48;;;0.88;;
18649;SDS011;9454;53.516;10.478;2023-12-20T02:03:05;11.20;;;1.58;;
18649;SDS011;9454;53.516;10.478;2023-12-20T02:06:09;20.90;;;1.88;;
18649;SDS011;9454;53.516;10.478;2023-12-20T02:09:13;6.22;;;1.27;;
18649;SDS011;9454;53.516;10.478;2023-12-20T02:12:18;15.43;;;1.38;;
18649;SDS011;9454;53.516;10.478;2023-12-20T02:15:22;6.68;;;1.20;;
18649;SDS011;9454;53.516;10.478;2023-12-20T02:18:34;10.48;;;1.17;;
18649;SDS011;9454;53.516;10.478;2023-12-20T02:21:40;4.35;;;1.02;;
18649;SDS011;9454;53.516;10.478;2023-12-20T02:24:43;8.60;;;1.00;;
18649;SDS011;9454;53.516;10.478;2023-12-20T02:27:47;8.45;;;1.42;;
18649;SDS011;9454;53.516;10.478;2023-12-20T02:30:51;6.30;;;0.88;;
18649;SDS011;9454;53.516;10.478;2023-12-20T02:33:55;8.07;;;1.20;;
18649;SDS011;9454;53.516;10.478;2023-12-20T02:37:00;7.45;;;1.20;;
18649;SDS011;9454;53.516;10.478;2023-12-20T02:40:06;12.82;;;1.70;;
18649;SDS011;9454;53.516;10.478;2023-12-20T02:43:10;8.52;;;1.48;;
18649;SDS011;9454;53.516;10.478;2023-12-20T02:46:14;12.20;;;1.52;;
18649;SDS011;9454;53.516;10.478;2023-12-20T02:49:19;7.78;;;1.30;;
18649;SDS011;9454;53.516;10.478;2023-12-20T02:52:24;12.32;;;1.88;;
18649;SDS011;9454;53.516;10.478;2023-12-20T02:55:28;5.28;;;1.08;;
18649;SDS011;9454;53.516;10.478;2023-12-20T02:58:32;5.10;;;1.10;;
18649;SDS011;9454;53.516;10.478;2023-12-20T03:01:39;8.18;;;1.10;;
18649;SDS011;9454;53.516;10.478;2023-12-20T03:04:45;4.22;;;0.90;;
18649;SDS011;9454;53.516;10.478;2023-12-20T03:07:50;4.10;;;1.30;;
18649;SDS011;9454;53.516;10.478;2023-12-20T03:10:54;7.05;;;1.13;;
18649;SDS011;9454;53.516;10.478;2023-12-20T03:13:58;12.68;;;1.27;;
18649;SDS011;9454;53.516;10.478;2023-12-20T03:17:02;6.38;;;1.13;;
18649;SDS011;9454;53.516;10.478;2023-12-20T03:20:06;14.43;;;2.08;;
18649;SDS011;9454;53.516;10.478;2023-12-20T03:23:18;7.95;;;1.08;;
18649;SDS011;9454;53.516;10.478;2023-12-20T03:26:28;9.13;;;1.15;;
18649;SDS011;9454;53.516;10.478;2023-12-20T03:29:32;10.20;;;1.17;;
18649;SDS011;9454;53.516;10.478;2023-12-20T03:32:37;11.82;;;1.33;;
18649;SDS011;9454;53.516;10.478;2023-12-20T03:35:40;7.65;;;1.08;;
18649;SDS011;9454;53.516;10.478;2023-12-20T03:38:45;2.63;;;1.15;;
18649;SDS011;9454;53.516;10.478;2023-12-20T03:41:49;5.22;;;1.10;;
18649;SDS011;9454;53.516;10.478;2023-12-20T03:44:53;4.82;;;1.38;;
18649;SDS011;9454;53.516;10.478;2023-12-20T03:47:56;2.97;;;0.93;;
18649;SDS011;9454;53.516;10.478;2023-12-20T03:51:00;8.35;;;1.30;;
18649;SDS011;9454;53.516;10.478;2023-12-20T03:54:05;8.63;;;1.00;;
18649;SDS011;9454;53.516;10.478;2023-12-20T03:57:11;13.88;;;1.38;;
18649;SDS011;9454;53.516;10.478;2023-12-20T04:00:16;11.43;;;1.80;;
18649;SDS011;9454;53.516;10.478;2023-12-20T04:03:19;5.05;;;1.23;;
18649;SDS011;9454;53.516;10.478;2023-12-20T04:06:23;11.65;;;1.33;;
18649;SDS011;9454;53.516;10.478;2023-12-20T04:09:28;4.15;;;1.10;;
18649;SDS011;9454;53.516;10.478;2023-12-20T04:12:32;5.13;;;1.20;;
18649;SDS011;9454;53.516;10.478;2023-12-20T04:15:36;13.45;;;1.58;;
18649;SDS011;9454;53.516;10.478;2023-12-20T04:18:40;7.28;;;1.30;;
18649;SDS011;9454;53.516;10.478;2023-12-20T04:21:43;11.25;;;1.60;;
18649;SDS011;9454;53.516;10.478;2023-12-20T04:24:49;5.40;;;1.25;;
18649;SDS011;9454;53.516;10.478;2023-12-20T04:27:53;9.32;;;1.30;;
18649;SDS011;9454;53.516;10.478;2023-12-20T04:30:57;16.00;;;1.55;;
18649;SDS011;9454;53.516;10.478;2023-12-20T04:34:01;8.18;;;1.10;;
18649;SDS011;9454;53.516;10.478;2023-12-20T04:37:10;9.90;;;1.45;;
18649;SDS011;9454;53.516;10.478;2023-12-20T04:40:20;10.93;;;1.38;;
18649;SDS011;9454;53.516;10.478;2023-12-20T04:43:24;5.35;;;1.50;;
18649;SDS011;9454;53.516;10.478;2023-12-20T04:46:28;8.02;;;1.20;;
18649;SDS011;9454;53.516;10.478;2023-12-20T04:49:32;10.48;;;1.33;;
18649;SDS011;9454;53.516;10.478;2023-12-20T04:52:36;11.05;;;1.48;;
18649;SDS011;9454;53.516;10.478;2023-12-20T04:55:42;3.95;;;1.17;;
18649;SDS011;9454;53.516;10.478;2023-12-20T04:58:45;3.40;;;1.08;;
18649;SDS011;9454;53.516;10.478;2023-12-20T05:01:52;14.60;;;1.60;;
18649;SDS011;9454;53.516;10.478;2023-12-20T05:04:57;7.03;;;1.50;;
18649;SDS011;9454;53.516;10.478;2023-12-20T05:08:03;5.80;;;1.83;;
18649;SDS011;9454;53.516;10.478;2023-12-20T05:11:08;3.50;;;1.50;;
18649;SDS011;9454;53.516;10.478;2023-12-20T05:14:12;6.20;;;1.70;;
18649;SDS011;9454;53.516;10.478;2023-12-20T05:17:15;5.97;;;1.42;;
18649;SDS011;9454;53.516;10.478;2023-12-20T05:20:19;11.45;;;1.63;;
18649;SDS011;9454;53.516;10.478;2023-12-20T05:23:25;5.47;;;1.30;;
18649;SDS011;9454;53.516;10.478;2023-12-20T05:26:30;3.50;;;1.55;;
18649;SDS011;9454;53.516;10.478;2023-12-20T05:29:33;10.27;;;2.00;;
18649;SDS011;9454;53.516;10.478;2023-12-20T05:32:37;3.47;;;1.40;;
18649;SDS011;9454;53.516;10.478;2023-12-20T05:35:41;4.28;;;1.55;;
18649;SDS011;9454;53.516;10.478;2023-12-20T05:38:46;6.43;;;1.38;;
18649;SDS011;9454;53.516;10.478;2023-12-20T05:41:50;14.43;;;1.88;;
18649;SDS011;9454;53.516;10.478;2023-12-20T05:44:54;10.32;;;1.80;;
18649;SDS011;9454;53.516;10.478;2023-12-20T05:47:59;9.43;;;1.73;;
18649;SDS011;9454;53.516;10.478;2023-12-20T05:51:03;9.95;;;1.73;;
18649;SDS011;9454;53.516;10.478;2023-12-20T05:54:07;7.88;;;1.80;;
18649;SDS011;9454;53.516;10.478;2023-12-20T05:57:12;10.15;;;2.13;;
18649;SDS011;9454;53.516;10.478;2023-12-20T06:00:16;3.95;;;1.88;;
18649;SDS011;9454;53.516;10.478;2023-12-20T06:03:20;9.68;;;1.95;;
18649;SDS011;9454;53.516;10.478;2023-12-20T06:06:25;13.10;;;2.35;;
18649;SDS011;9454;53.516;10.478;2023-12-20T06:09:32;18.60;;;2.60;;
18649;SDS011;9454;53.516;10.478;2023-12-20T06:12:39;20.90;;;2.40;;
18649;SDS011;9454;53.516;10.478;2023-12-20T06:15:43;16.95;;;2.10;;
18649;SDS011;9454;53.516;10.478;2023-12-20T06:18:47;10.73;;;2.17;;
18649;SDS011;9454;53.516;10.478;2023-12-20T06:21:51;8.45;;;1.80;;
18649;SDS011;9454;53.516;10.478;2023-12-20T06:24:55;8.07;;;2.10;;
18649;SDS011;9454;53.516;10.478;2023-12-20T06:28:00;6.57;;;1.90;;
18649;SDS011;9454;53.516;10.478;2023-12-20T06:31:04;8.43;;;1.60;;
18649;SDS011;9454;53.516;10.478;2023-12-20T06:34:08;12.63;;;1.95;;
18649;SDS011;9454;53.516;10.478;2023-12-20T06:37:12;5.20;;;1.65;;
18649;SDS011;9454;53.516;10.478;2023-12-20T06:40:17;6.85;;;1.55;;
18649;SDS011;9454;53.516;10.478;2023-12-20T06:43:22;11.95;;;1.45;;
18649;SDS011;9454;53.516;10.478;2023-12-20T06:46:46;9.02;;;1.38;;
18649;SDS011;9454;53.516;10.478;2023-12-20T06:49:50;13.73;;;1.98;;
18649;SDS011;9454;53.516;10.478;2023-12-20T06:52:54;6.25;;;1.50;;
18649;SDS011;9454;53.516;10.478;2023-12-20T06:56:00;6.22;;;1.58;;
18649;SDS011;9454;53.516;10.478;2023-12-20T06:59:05;10.15;;;1.92;;
18649;SDS011;9454;53.516;10.478;2023-12-20T07:02:09;7.30;;;1.85;;
18649;SDS011;9454;53.516;10.478;2023-12-20T07:05:16;7.85;;;1.23;;
18649;SDS011;9454;53.516;10.478;2023-12-20T07:08:21;5.45;;;1.77;;
18649;SDS011;9454;53.516;10.478;2023-12-20T07:11:25;6.28;;;1.35;;
18649;SDS011;9454;53.516;10.478;2023-12-20T07:14:30;10.73;;;1.85;;
18649;SDS011;9454;53.516;10.478;2023-12-20T07:17:34;10.07;;;2.13;;
18649;SDS011;9454;53.516;10.478;2023-12-20T07:20:38;7.38;;;1.45;;
18649;SDS011;9454;53.516;10.478;2023-12-20T07:23:42;8.45;;;1.58;;
18649;SDS011;9454;53.516;10.478;2023-12-20T07:26:45;4.95;;;1.50;;
18649;SDS011;9454;53.516;10.478;2023-12-20T07:29:53;4.38;;;1.40;;
18649;SDS011;9454;53.516;10.478;2023-12-20T07:33:01;9.95;;;2.10;;
18649;SDS011;9454;53.516;10.478;2023-12-20T07:36:05;10.15;;;1.48;;
18649;SDS011;9454;53.516;10.478;2023-12-20T07:39:10;12.32;;;1.73;;
18649;SDS011;9454;53.516;10.478;2023-12-20T07:42:14;12.27;;;2.00;;
18649;SDS011;9454;53.516;10.478;2023-12-20T07:45:19;5.95;;;1.65;;
18649;SDS011;9454;53.516;10.478;2023-12-20T07:48:24;6.20;;;1.45;;
18649;SDS011;9454;53.516;10.478;2023-12-20T07:51:28;10.10;;;1.70;;
18649;SDS011;9454;53.516;10.478;2023-12-20T07:54:31;7.05;;;1.67;;
18649;SDS011;9454;53.516;10.478;2023-12-20T07:57:35;6.90;;;1.60;;
18649;SDS011;9454;53.516;10.478;2023-12-20T08:00:40;8.00;;;1.88;;
18649;SDS011;9454;53.516;10.478;2023-12-20T08:03:45;8.77;;;2.05;;
18649;SDS011;9454;53.516;10.478;2023-12-20T08:06:49;6.88;;;1.40;;
18649;SDS011;9454;53.516;10.478;2023-12-20T08:09:52;13.73;;;1.80;;
18649;SDS011;9454;53.516;10.478;2023-12-20T08:12:58;16.45;;;2.17;;
18649;SDS011;9454;53.516;10.478;2023-12-20T08:16:04;8.93;;;2.13;;
18649;SDS011;9454;53.516;10.478;2023-12-20T08:19:10;8.13;;;2.00;;
18649;SDS011;9454;53.516;10.478;2023-12-20T08:22:14;7.85;;;1.80;;
18649;SDS011;9454;53.516;10.478;2023-12-20T08:25:18;15.15;;;2.25;;
18649;SDS011;9454;53.516;10.478;2023-12-20T08:28:21;7.55;;;1.90;;
18649;SDS011;9454;53.516;10.478;2023-12-20T08:31:27;12.02;;;1.67;;
18649;SDS011;9454;53.516;10.478;2023-12-20T08:34:31;17.17;;;2.28;;
18649;SDS011;9454;53.516;10.478;2023-12-20T08:37:40;11.40;;;2.08;;
18649;SDS011;9454;53.516;10.478;2023-12-20T08:40:44;17.60;;;1.75;;
18649;SDS011;9454;53.516;10.478;2023-12-20T08:43:51;6.85;;;1.80;;
18649;SDS011;9454;53.516;10.478;2023-12-20T08:46:56;9.60;;;1.90;;
18649;SDS011;9454;53.516;10.478;2023-12-20T08:50:00;12.10;;;2.17;;
18649;SDS011;9454;53.516;10.478;2023-12-20T08:53:07;8.95;;;2.15;;
18649;SDS011;9454;53.516;10.478;2023-12-20T08:56:10;13.07;;;1.80;;
18649;SDS011;9454;53.516;10.478;2023-12-20T08:59:19;22.40;;;2.50;;
18649;SDS011;9454;53.516;10.478;2023-12-20T09:02:25;12.93;;;1.67;;
18649;SDS011;9454;53.516;10.478;2023-12-20T09:05:28;7.55;;;2.00;;
18649;SDS011;9454;53.516;10.478;2023-12-20T09:08:33;11.02;;;2.83;;
18649;SDS011;9454;53.516;10.478;2023-12-20T09:11:37;12.75;;;2.28;;
18649;SDS011;9454;53.516;10.478;2023-12-20T09:14:41;11.77;;;2.63;;
18649;SDS011;9454;53.516;10.478;2023-12-20T09:17:47;9.50;;;1.75;;
18649;SDS011;9454;53.516;10.478;2023-12-20T09:20:51;15.02;;;2.05;;
18649;SDS011;9454;53.516;10.478;2023-12-20T09:23:55;10.85;;;1.95;;
18649;SDS011;9454;53.516;10.478;2023-12-20T09:26:59;6.85;;;1.42;;
18649;SDS011;9454;53.516;10.478;2023-12-20T09:30:03;6.65;;;1.42;;
18649;SDS011;9454;53.516;10.478;2023-12-20T09:33:09;10.35;;;2.72;;
18649;SDS011;9454;53.516;10.478;2023-12-20T09:36:15;8.90;;;1.58;;
18649;SDS011;9454;53.516;10.478;2023-12-20T09:39:20;10.40;;;1.20;;
18649;SDS011;9454;53.516;10.478;2023-12-20T09:42:27;5.25;;;1.27;;
18649;SDS011;9454;53.516;10.478;2023-12-20T09:45:33;8.45;;;1.63;;
18649;SDS011;9454;53.516;10.478;2023-12-20T09:48:39;4.75;;;1.20;;
18649;SDS011;9454;53.516;10.478;2023-12-20T09:51:44;4.18;;;1.02;;
18649;SDS011;9454;53.516;10.478;2023-12-20T09:54:49;2.63;;;0.60;;
18649;SDS011;9454;53.516;10.478;2023-12-20T09:57:55;1.65;;;0.63;;
18649;SDS011;9454;53.516;10.478;2023-12-20T10:01:00;4.10;;;0.77;;
18649;SDS011;9454;53.516;10.478;2023-12-20T10:04:10;3.38;;;0.60;;
18649;SDS011;9454;53.516;10.478;2023-12-20T10:07:30;1.92;;;0.90;;
18649;SDS011;9454;53.516;10.478;2023-12-20T10:10:34;2.38;;;0.55;;
18649;SDS011;9454;53.516;10.478;2023-12-20T10:13:48;2.55;;;0.57;;
18649;SDS011;9454;53.516;10.478;2023-12-20T10:16:53;4.60;;;0.73;;
18649;SDS011;9454;53.516;10.478;2023-12-20T10:20:02;5.13;;;0.85;;
18649;SDS011;9454;53.516;10.478;2023-12-20T10:23:11;2.65;;;0.57;;
18649;SDS011;9454;53.516;10.478;2023-12-20T10:26:21;1.25;;;0.60;;
18649;SDS011;9454;53.516;10.478;2023-12-20T10:29:25;3.83;;;0.70;;
18649;SDS011;9454;53.516;10.478;2023-12-20T10:32:29;5.70;;;0.63;;
18649;SDS011;9454;53.516;10.478;2023-12-20T10:35:34;3.78;;;0.70;;
18649;SDS011;9454;53.516;10.478;2023-12-20T10:38:41;1.77;;;0.95;;
18649;SDS011;9454;53.516;10.478;2023-12-20T10:41:46;2.80;;;0.70;;
18649;SDS011;9454;53.516;10.478;2023-12-20T10:44:50;3.03;;;0.60;;
18649;SDS011;9454;53.516;10.478;2023-12-20T10:47:55;0.40;;;0.40;;
18649;SDS011;9454;53.516;10.478;2023-12-20T10:51:02;2.72;;;0.50;;
18649;SDS011;9454;53.516;10.478;2023-12-20T10:54:07;0.70;;;0.52;;
18649;SDS011;9454;53.516;10.478;2023-12-20T10:57:11;2.42;;;0.57;;
18649;SDS011;9454;53.516;10.478;2023-12-20T11:00:15;1.25;;;0.57;;
18649;SDS011;9454;53.516;10.478;2023-12-20T11:03:19;5.60;;;0.80;;
18649;SDS011;9454;53.516;10.478;2023-12-20T11:06:29;1.45;;;0.40;;
18649;SDS011;9454;53.516;10.478;2023-12-20T11:09:38;1.92;;;0.40;;
18649;SDS011;9454;53.516;10.478;2023-12-20T11:12:44;1.30;;;0.80;;
18649;SDS011;9454;53.516;10.478;2023-12-20T11:15:51;4.30;;;0.88;;
18649;SDS011;9454;53.516;10.478;2023-12-20T11:18:55;2.17;;;0.50;;
18649;SDS011;9454;53.516;10.478;2023-12-20T11:22:00;1.85;;;0.50;;
18649;SDS011;9454;53.516;10.478;2023-12-20T11:25:07;4.25;;;0.68;;
18649;SDS011;9454;53.516;10.478;2023-12-20T11:28:12;3.38;;;0.52;;
18649;SDS011;9454;53.516;10.478;2023-12-20T11:31:16;5.82;;;0.93;;
18649;SDS011;9454;53.516;10.478;2023-12-20T11:34:20;3.85;;;0.60;;
18649;SDS011;9454;53.516;10.478;2023-12-20T11:37:29;4.30;;;0.85;;
18649;SDS011;9454;53.516;10.478;2023-12-20T11:40:34;12.50;;;1.05;;
18649;SDS011;9454;53.516;10.478;2023-12-20T11:43:39;4.28;;;0.90;;
18649;SDS011;9454;53.516;10.478;2023-12-20T11:46:43;4.25;;;0.90;;
18649;SDS011;9454;53.516;10.478;2023-12-20T11:49:47;2.22;;;0.88;;
18649;SDS011;9454;53.516;10.478;2023-12-20T11:52:54;1.20;;;0.50;;
18649;SDS011;9454;53.516;10.478;2023-12-20T11:55:59;0.40;;;0.35;;
18649;SDS011;9454;53.516;10.478;2023-12-20T11:59:04;6.40;;;1.08;;
18649;SDS011;9454;53.516;10.478;2023-12-20T12:02:23;2.13;;;0.80;;
18649;SDS011;9454;53.516;10.478;2023-12-20T12:05:27;6.13;;;0.93;;
18649;SDS011;9454;53.516;10.478;2023-12-20T12:08:34;4.43;;;0.50;;
18649;SDS011;9454;53.516;10.478;2023-12-20T12:11:39;4.43;;;0.50;;
18649;SDS011;9454;53.516;10.478;2023-12-20T12:14:43;0.88;;;0.50;;
18649;SDS011;9454;53.516;10.478;2023-12-20T12:17:52;6.55;;;0.98;;
18649;SDS011;9454;53.516;10.478;2023-12-20T12:21:02;4.15;;;0.88;;
18649;SDS011;9454;53.516;10.478;2023-12-20T12:24:19;0.40;;;0.40;;
18649;SDS011;9454;53.516;10.478;2023-12-20T12:27:23;4.03;;;0.70;;
18649;SDS011;9454;53.516;10.478;2023-12-20T12:30:27;4.97;;;0.80;;
18649;SDS011;9454;53.516;10.478;2023-12-20T12:33:40;8.63;;;0.95;;
18649;SDS011;9454;53.516;10.478;2023-12-20T12:36:45;4.95;;;1.10;;
18649;SDS011;9454;53.516;10.478;2023-12-20T12:39:52;11.55;;;1.08;;
18649;SDS011;9454;53.516;10.478;2023-12-20T12:42:57;6.35;;;1.23;;
18649;SDS011;9454;53.516;10.478;2023-12-20T12:46:02;8.40;;;1.58;;
18649;SDS011;9454;53.516;10.478;2023-12-20T12:49:06;4.97;;;0.98;;
18649;SDS011;9454;53.516;10.478;2023-12-20T12:52:11;12.82;;;1.60;;
18649;SDS011;9454;53.516;10.478;2023-12-20T12:55:17;5.07;;;0.95;;
18649;SDS011;9454;53.516;10.478;2023-12-20T12:58:21;7.13;;;1.20;;
18649;SDS011;9454;53.516;10.478;2023-12-20T13:01:27;8.13;;;1.13;;
18649;SDS011;9454;53.516;10.478;2023-12-20T13:04:30;12.32;;;1.85;;
18649;SDS011;9454;53.516;10.478;2023-12-20T13:07:35;6.72;;;1.45;;
18649;SDS011;9454;53.516;10.478;2023-12-20T13:10:42;6.68;;;1.30;;
18649;SDS011;9454;53.516;10.478;2023-12-20T13:13:46;10.77;;;1.35;;
18649;SDS011;9454;53.516;10.478;2023-12-20T13:16:50;5.88;;;1.10;;
18649;SDS011;9454;53.516;10.478;2023-12-20T13:19:53;6.10;;;1.65;;
18649;SDS011;9454;53.516;10.478;2023-12-20T13:22:57;7.15;;;1.55;;
18649;SDS011;9454;53.516;10.478;2023-12-20T13:26:14;6.03;;;1.08;;
18649;SDS011;9454;53.516;10.478;2023-12-20T13:29:19;13.57;;;1.40;;
18649;SDS011;9454;53.516;10.478;2023-12-20T13:32:22;6.72;;;1.30;;
18649;SDS011;9454;53.516;10.478;2023-12-20T13:35:26;17.13;;;1.85;;
18649;SDS011;9454;53.516;10.478;2023-12-20T13:38:31;11.50;;;1.48;;
18649;SDS011;9454;53.516;10.478;2023-12-20T13:41:36;13.70;;;1.60;;
18649;SDS011;9454;53.516;10.478;2023-12-20T13:44:40;10.60;;;1.60;;
18649;SDS011;9454;53.516;10.478;2023-12-20T13:47:44;10.05;;;1.55;;
18649;SDS011;9454;53.516;10.478;2023-12-20T13:50:48;8.23;;;1.05;;
18649;SDS011;9454;53.516;10.478;2023-12-20T13:53:51;14.38;;;1.45;;
18649;SDS011;9454;53.516;10.478;2023-12-20T13:57:12;13.07;;;1.67;;
18649;SDS011;9454;53.516;10.478;2023-12-20T14:00:32;9.57;;;1.60;;
18649;SDS011;9454;53.516;10.478;2023-12-20T14:03:38;13.30;;;1.73;;
18649;SDS011;9454;53.516;10.478;2023-12-20T14:06:42;13.40;;;1.63;;
18649;SDS011;9454;53.516;10.478;2023-12-20T14:09:46;18.63;;;1.95;;
18649;SDS011;9454;53.516;10.478;2023-12-20T14:12:52;14.85;;;1.92;;
18649;SDS011;9454;53.516;10.478;2023-12-20T14:15:59;10.35;;;1.38;;
18649;SDS011;9454;53.516;10.478;2023-12-20T14:19:07;8.63;;;1.40;;
18649;SDS011;9454;53.516;10.478;2023-12-20T14:22:11;12.70;;;1.70;;
18649;SDS011;9454;53.516;10.478;2023-12-20T14:25:19;15.23;;;2.08;;
18649;SDS011;9454;53.516;10.478;2023-12-20T14:28:26;7.25;;;1.35;;
18649;SDS011;9454;53.516;10.478;2023-12-20T14:31:31;18.83;;;2.08;;
18649;SDS011;9454;53.516;10.478;2023-12-20T14:34:35;11.05;;;1.92;;
18649;SDS011;9454;53.516;10.478;2023-12-20T14:37:40;19.98;;;2.00;;
18649;SDS011;9454;53.516;10.478;2023-12-20T14:40:44;6.80;;;1.63;;
18649;SDS011;9454;53.516;10.478;2023-12-20T14:43:50;13.73;;;1.80;;
18649;SDS011;9454;53.516;10.478;2023-12-20T14:47:04;9.38;;;2.15;;
18649;SDS011;9454;53.516;10.478;2023-12-20T14:50:08;18.90;;;2.42;;
18649;SDS011;9454;53.516;10.478;2023-12-20T14:53:12;19.23;;;1.75;;
18649;SDS011;9454;53.516;10.478;2023-12-20T14:56:23;19.65;;;2.15;;
18649;SDS011;9454;53.516;10.478;2023-12-20T14:59:33;13.95;;;2.30;;
18649;SDS011;9454;53.516;10.478;2023-12-20T15:02:39;12.93;;;1.70;;
18649;SDS011;9454;53.516;10.478;2023-12-20T15:05:44;10.95;;;2.15;;
18649;SDS011;9454;53.516;10.478;2023-12-20T15:08:49;12.65;;;1.98;;
18649;SDS011;9454;53.516;10.478;2023-12-20T15:11:53;15.57;;;2.55;;
18649;SDS011;9454;53.516;10.478;2023-12-20T15:15:03;13.55;;;2.75;;
18649;SDS011;9454;53.516;10.478;2023-12-20T15:18:08;20.80;;;2.83;;
18649;SDS011;9454;53.516;10.478;2023-12-20T15:21:12;16.98;;;2.30;;
18649;SDS011;9454;53.516;10.478;2023-12-20T15:24:16;16.83;;;2.13;;
18649;SDS011;9454;53.516;10.478;2023-12-20T15:27:21;8.25;;;1.65;;
18649;SDS011;9454;53.516;10.478;2023-12-20T15:30:27;10.55;;;1.88;;
18649;SDS011;9454;53.516;10.478;2023-12-20T15:33:31;4.97;;;1.65;;
18649;SDS011;9454;53.516;10.478;2023-12-20T15:36:36;14.18;;;2.40;;
18649;SDS011;9454;53.516;10.478;2023-12-20T15:39:41;8.00;;;2.22;;
18649;SDS011;9454;53.516;10.478;2023-12-20T15:42:46;21.55;;;2.30;;
18649;SDS011;9454;53.516;10.478;2023-12-20T15:46:03;15.00;;;2.13;;
18649;SDS011;9454;53.516;10.478;2023-12-20T15:49:07;22.70;;;2.10;;
18649;SDS011;9454;53.516;10.478;2023-12-20T15:52:12;14.93;;;2.58;;
18649;SDS011;9454;53.516;10.478;2023-12-20T15:55:16;14.82;;;1.80;;
18649;SDS011;9454;53.516;10.478;2023-12-20T15:58:20;7.75;;;2.03;;
18649;SDS011;9454;53.516;10.478;2023-12-20T16:01:26;5.70;;;1.80;;
18649;SDS011;9454;53.516;10.478;2023-12-20T16:04:30;12.60;;;1.98;;
18649;SDS011;9454;53.516;10.478;2023-12-20T16:07:34;11.18;;;2.08;;
18649;SDS011;9454;53.516;10.478;2023-12-20T16:10:37;10.10;;;2.08;;
18649;SDS011;9454;53.516;10.478;2023-12-20T16:13:42;15.80;;;2.40;;
18649;SDS011;9454;53.516;10.478;2023-12-20T16:16:47;13.70;;;2.05;;
18649;SDS011;9454;53.516;10.478;2023-12-20T16:19:54;12.98;;;2.03;;
18649;SDS011;9454;53.516;10.478;2023-12-20T16:22:58;13.95;;;2.55;;
18649;SDS011;9454;53.516;10.478;2023-12-20T16:26:02;9.65;;;2.17;;
18649;SDS011;9454;53.516;10.478;2023-12-20T16:29:11;14.98;;;2.33;;
18649;SDS011;9454;53.516;10.478;2023-12-20T16:32:28;8.75;;;1.92;;
18649;SDS011;9454;53.516;10.478;2023-12-20T16:35:31;13.20;;;2.20;;
18649;SDS011;9454;53.516;10.478;2023-12-20T16:38:36;10.48;;;1.58;;
18649;SDS011;9454;53.516;10.478;2023-12-20T16:41:40;16.25;;;1.90;;
18649;SDS011;9454;53.516;10.478;2023-12-20T16:44:53;7.72;;;2.42;;
18649;SDS011;9454;53.516;10.478;2023-12-20T16:47:58;12.98;;;1.85;;
18649;SDS011;9454;53.516;10.478;2023-12-20T16:51:02;12.77;;;2.05;;
18649;SDS011;9454;53.516;10.478;2023-12-20T16:54:06;12.05;;;2.28;;
18649;SDS011;9454;53.516;10.478;2023-12-20T16:57:10;19.27;;;1.95;;
18649;SDS011;9454;53.516;10.478;2023-12-20T17:00:15;18.60;;;2.15;;
18649;SDS011;9454;53.516;10.478;2023-12-20T17:03:21;17.40;;;1.85;;
18649;SDS011;9454;53.516;10.478;2023-12-20T17:06:28;14.60;;;1.75;;
18649;SDS011;9454;53.516;10.478;2023-12-20T17:09:32;8.85;;;1.45;;
18649;SDS011;9454;53.516;10.478;2023-12-20T17:12:36;14.70;;;2.28;;
18649;SDS011;9454;53.516;10.478;2023-12-20T17:15:40;3.92;;;1.48;;
18649;SDS011;9454;53.516;10.478;2023-12-20T17:18:45;8.75;;;1.52;;
18649;SDS011;9454;53.516;10.478;2023-12-20T17:21:51;9.68;;;1.70;;
18649;SDS011;9454;53.516;10.478;2023-12-20T17:24:55;5.95;;;1.55;;
18649;SDS011;9454;53.516;10.478;2023-12-20T17:27:59;11.57;;;1.73;;
18649;SDS011;9454;53.516;10.478;2023-12-20T17:31:03;3.90;;;1.50;;
18649;SDS011;9454;53.516;10.478;2023-12-20T17:34:09;7.97;;;1.63;;
18649;SDS011;9454;53.516;10.478;2023-12-20T17:37:14;3.72;;;0.90;;
18649;SDS011;9454;53.516;10.478;2023-12-20T17:40:18;4.78;;;1.35;;
18649;SDS011;9454;53.516;10.478;2023-12-20T17:43:22;4.22;;;0.98;;
18649;SDS011;9454;53.516;10.478;2023-12-20T17:46:26;2.90;;;1.20;;
18649;SDS011;9454;53.516;10.478;2023-12-20T17:49:33;8.80;;;1.08;;
18649;SDS011;9454;53.516;10.478;2023-12-20T17:52:37;6.50;;;1.05;;
18649;SDS011;9454;53.516;10.478;2023-12-20T17:55:41;3.35;;;1.15;;
18649;SDS011;9454;53.516;10.478;2023-12-20T17:58:45;8.38;;;1.17;;
18649;SDS011;9454;53.516;10.478;2023-12-20T18:01:49;3.22;;;0.93;;
18649;SDS011;9454;53.516;10.478;2023-12-20T18:04:56;8.07;;;1.13;;
18649;SDS011;9454;53.516;10.478;2023-12-20T18:07:59;6.10;;;1.52;;
18649;SDS011;9454;53.516;10.478;2023-12-20T18:11:03;5.05;;;1.45;;
18649;SDS011;9454;53.516;10.478;2023-12-20T18:14:07;6.18;;;1.38;;
18649;SDS011;9454;53.516;10.478;2023-12-20T18:17:14;8.02;;;1.67;;
18649;SDS011;9454;53.516;10.478;2023-12-20T18:25:19;8.15;;;2.63;;
18649;SDS011;9454;53.516;10.478;2023-12-20T18:28:22;8.40;;;2.33;;
18649;SDS011;9454;53.516;10.478;2023-12-20T18:31:26;15.93;;;1.90;;
18649;SDS011;9454;53.516;10.478;2023-12-20T18:34:34;8.35;;;1.98;;
18649;SDS011;9454;53.516;10.478;2023-12-20T18:37:38;12.48;;;1.77;;